sensor_id;sensor_type;location;lat;lon;timestamp;pressure;altitude;pressure_sealevel;temperature;humidity
53868;BME280;41577;47.470;19.080;2023-05-11T00:00:29;100284.09;;;13.14;57.43
53868;BME280;41577;47.470;19.080;2023-05-11T00:00:41;100278.72;;;13.14;57.78
53868;BME280;41577;47.470;19.080;2023-05-11T00:01:02;100288.41;;;13.15;58.17
53868;BME280;41577;47.470;19.080;2023-05-11T00:01:13;100282.22;;;13.15;57.83
53868;BME280;41577;47.470;19.080;2023-05-11T00:01:25;100285.72;;;13.15;57.93
53868;BME280;41577;47.470;19.080;2023-05-11T00:01:37;100282.22;;;13.15;57.39
53868;BME280;41577;47.470;19.080;2023-05-11T00:01:49;100284.09;;;13.14;57.89
53868;BME280;41577;47.470;19.080;2023-05-11T00:02:00;100283.28;;;13.14;57.97
53868;BME280;41577;47.470;19.080;2023-05-11T00:02:12;100289.44;;;13.14;58.04
53868;BME280;41577;47.470;19.080;2023-05-11T00:02:24;100278.72;;;13.14;58.00
53868;BME280;41577;47.470;19.080;2023-05-11T00:02:36;100278.72;;;13.14;58.02
53868;BME280;41577;47.470;19.080;2023-05-11T00:02:47;100277.91;;;13.14;57.94
53868;BME280;41577;47.470;19.080;2023-05-11T00:02:59;100284.28;;;13.13;57.97
53868;BME280;41577;47.470;19.080;2023-05-11T00:03:11;100278.09;;;13.12;58.13
53868;BME280;41577;47.470;19.080;2023-05-11T00:03:23;100278.91;;;13.13;58.34
53868;BME280;41577;47.470;19.080;2023-05-11T00:03:35;100277.91;;;13.14;58.09
53868;BME280;41577;47.470;19.080;2023-05-11T00:03:47;100282.41;;;13.13;58.40
53868;BME280;41577;47.470;19.080;2023-05-11T00:03:59;100277.06;;;13.13;58.16
53868;BME280;41577;47.470;19.080;2023-05-11T00:04:11;100285.09;;;13.13;58.32
53868;BME280;41577;47.470;19.080;2023-05-11T00:04:23;100279.75;;;13.13;58.09
53868;BME280;41577;47.470;19.080;2023-05-11T00:04:34;100281.59;;;13.13;58.18
53868;BME280;41577;47.470;19.080;2023-05-11T00:04:46;100275.41;;;13.12;58.14
53868;BME280;41577;47.470;19.080;2023-05-11T00:04:58;100278.72;;;13.14;58.36
53868;BME280;41577;47.470;19.080;2023-05-11T00:05:10;100283.28;;;13.14;58.26
53868;BME280;41577;47.470;19.080;2023-05-11T00:05:21;100278.91;;;13.13;58.49
53868;BME280;41577;47.470;19.080;2023-05-11T00:05:33;100281.59;;;13.13;58.56
53868;BME280;41577;47.470;19.080;2023-05-11T00:05:46;100279.75;;;13.13;58.65
53868;BME280;41577;47.470;19.080;2023-05-11T00:05:58;100280.78;;;13.12;58.56
53868;BME280;41577;47.470;19.080;2023-05-11T00:06:10;100277.06;;;13.13;58.55
53868;BME280;41577;47.470;19.080;2023-05-11T00:06:21;100272.75;;;13.12;58.76
53868;BME280;41577;47.470;19.080;2023-05-11T00:06:33;100283.47;;;13.12;58.90
53868;BME280;41577;47.470;19.080;2023-05-11T00:06:45;100281.59;;;13.13;58.68
53868;BME280;41577;47.470;19.080;2023-05-11T00:06:56;100273.56;;;13.13;58.57
53868;BME280;41577;47.470;19.080;2023-05-11T00:07:08;100276.25;;;13.13;59.01
53868;BME280;41577;47.470;19.080;2023-05-11T00:07:20;100273.56;;;13.13;58.89
53868;BME280;41577;47.470;19.080;2023-05-11T00:07:31;100275.41;;;13.12;58.95
53868;BME280;41577;47.470;19.080;2023-05-11T00:07:43;100275.41;;;13.12;58.86
53868;BME280;41577;47.470;19.080;2023-05-11T00:07:55;100281.59;;;13.13;58.92
53868;BME280;41577;47.470;19.080;2023-05-11T00:08:06;100274.38;;;13.13;58.58
53868;BME280;41577;47.470;19.080;2023-05-11T00:08:18;100282.41;;;13.13;58.82
53868;BME280;41577;47.470;19.080;2023-05-11T00:08:30;100278.91;;;13.13;58.62
53868;BME280;41577;47.470;19.080;2023-05-11T00:08:41;100274.38;;;13.13;59.00
53868;BME280;41577;47.470;19.080;2023-05-11T00:08:53;100269.00;;;13.13;59.05
53868;BME280;41577;47.470;19.080;2023-05-11T00:09:05;100269.88;;;13.14;59.05
53868;BME280;41577;47.470;19.080;2023-05-11T00:09:16;100272.53;;;13.14;58.92
53868;BME280;41577;47.470;19.080;2023-05-11T00:09:28;100274.38;;;13.13;59.02
53868;BME280;41577;47.470;19.080;2023-05-11T00:09:40;100275.22;;;13.14;59.19
53868;BME280;41577;47.470;19.080;2023-05-11T00:09:51;100280.59;;;13.14;59.05
53868;BME280;41577;47.470;19.080;2023-05-11T00:10:04;100275.22;;;13.14;58.74
53868;BME280;41577;47.470;19.080;2023-05-11T00:10:16;100277.91;;;13.14;59.25
53868;BME280;41577;47.470;19.080;2023-05-11T00:10:28;100277.91;;;13.14;59.10
53868;BME280;41577;47.470;19.080;2023-05-11T00:10:40;100275.22;;;13.14;58.88
53868;BME280;41577;47.470;19.080;2023-05-11T00:10:52;100276.25;;;13.13;59.13
53868;BME280;41577;47.470;19.080;2023-05-11T00:11:06;100278.91;;;13.13;59.38
53868;BME280;41577;47.470;19.080;2023-05-11T00:11:18;100272.53;;;13.14;59.12
53868;BME280;41577;47.470;19.080;2023-05-11T00:11:30;100281.41;;;13.14;59.16
53868;BME280;41577;47.470;19.080;2023-05-11T00:11:41;100281.41;;;13.14;59.11
53868;BME280;41577;47.470;19.080;2023-05-11T00:11:53;100278.72;;;13.14;58.85
53868;BME280;41577;47.470;19.080;2023-05-11T00:12:05;100278.72;;;13.14;58.74
53868;BME280;41577;47.470;19.080;2023-05-11T00:12:17;100275.22;;;13.14;59.02
53868;BME280;41577;47.470;19.080;2023-05-11T00:12:29;100279.75;;;13.13;59.11
53868;BME280;41577;47.470;19.080;2023-05-11T00:12:40;100276.88;;;13.15;58.53
53868;BME280;41577;47.470;19.080;2023-05-11T00:12:52;100269.88;;;13.14;58.82
53868;BME280;41577;47.470;19.080;2023-05-11T00:13:04;100270.06;;;13.12;58.89
53868;BME280;41577;47.470;19.080;2023-05-11T00:13:15;100278.72;;;13.14;58.92
53868;BME280;41577;47.470;19.080;2023-05-11T00:13:27;100277.28;;;13.12;58.80
53868;BME280;41577;47.470;19.080;2023-05-11T00:13:39;100276.03;;;13.14;59.14
53868;BME280;41577;47.470;19.080;2023-05-11T00:13:51;100274.19;;;13.15;58.96
53868;BME280;41577;47.470;19.080;2023-05-11T00:14:03;100274.19;;;13.15;59.01
53868;BME280;41577;47.470;19.080;2023-05-11T00:14:15;100280.59;;;13.14;58.72
53868;BME280;41577;47.470;19.080;2023-05-11T00:14:26;100277.91;;;13.14;58.95
53868;BME280;41577;47.470;19.080;2023-05-11T00:14:38;100278.72;;;13.14;59.19
53868;BME280;41577;47.470;19.080;2023-05-11T00:14:50;100279.34;;;13.16;58.88
53868;BME280;41577;47.470;19.080;2023-05-11T00:15:02;100277.69;;;13.15;59.30
53868;BME280;41577;47.470;19.080;2023-05-11T00:15:14;100279.34;;;13.16;59.31
53868;BME280;41577;47.470;19.080;2023-05-11T00:15:26;100283.03;;;13.15;59.18
53868;BME280;41577;47.470;19.080;2023-05-11T00:15:39;100271.69;;;13.13;58.95
53868;BME280;41577;47.470;19.080;2023-05-11T00:15:51;100277.69;;;13.15;59.04
53868;BME280;41577;47.470;19.080;2023-05-11T00:16:03;100280.38;;;13.15;59.13
53868;BME280;41577;47.470;19.080;2023-05-11T00:16:15;100280.38;;;13.15;58.65
53868;BME280;41577;47.470;19.080;2023-05-11T00:16:27;100277.50;;;13.17;59.24
53868;BME280;41577;47.470;19.080;2023-05-11T00:16:38;100282.03;;;13.16;58.86
53868;BME280;41577;47.470;19.080;2023-05-11T00:16:50;100271.50;;;13.15;59.37
53868;BME280;41577;47.470;19.080;2023-05-11T00:17:02;100281.22;;;13.16;59.77
53868;BME280;41577;47.470;19.080;2023-05-11T00:17:13;100276.66;;;13.16;59.17
53868;BME280;41577;47.470;19.080;2023-05-11T00:17:25;100274.00;;;13.16;59.50
53868;BME280;41577;47.470;19.080;2023-05-11T00:17:37;100277.69;;;13.15;59.67
53868;BME280;41577;47.470;19.080;2023-05-11T00:17:48;100278.53;;;13.16;59.46
53868;BME280;41577;47.470;19.080;2023-05-11T00:18:00;100282.03;;;13.16;59.52
53868;BME280;41577;47.470;19.080;2023-05-11T00:18:12;100280.16;;;13.17;59.66
53868;BME280;41577;47.470;19.080;2023-05-11T00:18:24;100281.00;;;13.17;59.88
53868;BME280;41577;47.470;19.080;2023-05-11T00:18:36;100281.81;;;13.18;59.43
53868;BME280;41577;47.470;19.080;2023-05-11T00:18:47;100281.00;;;13.17;59.41
53868;BME280;41577;47.470;19.080;2023-05-11T00:18:59;100281.00;;;13.17;60.10
53868;BME280;41577;47.470;19.080;2023-05-11T00:19:11;100281.00;;;13.17;59.44
53868;BME280;41577;47.470;19.080;2023-05-11T00:19:23;100285.53;;;13.17;59.75
53868;BME280;41577;47.470;19.080;2023-05-11T00:19:34;100286.16;;;13.19;59.86
53868;BME280;41577;47.470;19.080;2023-05-11T00:19:46;100278.31;;;13.17;59.99
53868;BME280;41577;47.470;19.080;2023-05-11T00:19:58;100281.00;;;13.17;59.69
53868;BME280;41577;47.470;19.080;2023-05-11T00:20:10;100281.00;;;13.17;59.75
53868;BME280;41577;47.470;19.080;2023-05-11T00:20:22;100275.63;;;13.17;59.58
53868;BME280;41577;47.470;19.080;2023-05-11T00:20:33;100279.34;;;13.16;59.90
53868;BME280;41577;47.470;19.080;2023-05-11T00:20:45;100281.00;;;13.17;59.98
53868;BME280;41577;47.470;19.080;2023-05-11T00:20:57;100281.81;;;13.18;60.05
53868;BME280;41577;47.470;19.080;2023-05-11T00:21:09;100286.34;;;13.17;59.66
53868;BME280;41577;47.470;19.080;2023-05-11T00:21:20;100282.84;;;13.17;59.68
53868;BME280;41577;47.470;19.080;2023-05-11T00:21:32;100277.28;;;13.18;59.95
53868;BME280;41577;47.470;19.080;2023-05-11T00:21:44;100288.84;;;13.19;59.60
53868;BME280;41577;47.470;19.080;2023-05-11T00:21:55;100286.34;;;13.17;59.69
53868;BME280;41577;47.470;19.080;2023-05-11T00:22:07;100272.13;;;13.17;59.53
53868;BME280;41577;47.470;19.080;2023-05-11T00:22:19;100283.47;;;13.19;59.46
53868;BME280;41577;47.470;19.080;2023-05-11T00:22:30;100278.31;;;13.17;59.85
53868;BME280;41577;47.470;19.080;2023-05-11T00:22:42;100284.47;;;13.18;59.92
53868;BME280;41577;47.470;19.080;2023-05-11T00:22:55;100279.97;;;13.18;59.82
53868;BME280;41577;47.470;19.080;2023-05-11T00:23:07;100278.31;;;13.17;59.89
53868;BME280;41577;47.470;19.080;2023-05-11T00:23:18;100284.47;;;13.18;59.60
53868;BME280;41577;47.470;19.080;2023-05-11T00:23:30;100279.13;;;13.18;59.97
53868;BME280;41577;47.470;19.080;2023-05-11T00:23:42;100278.94;;;13.19;59.99
53868;BME280;41577;47.470;19.080;2023-05-11T00:23:54;100278.13;;;13.19;60.16
53868;BME280;41577;47.470;19.080;2023-05-11T00:24:06;100275.63;;;13.17;59.99
53868;BME280;41577;47.470;19.080;2023-05-11T00:24:18;100276.44;;;13.18;60.07
53868;BME280;41577;47.470;19.080;2023-05-11T00:24:30;100279.13;;;13.18;59.89
53868;BME280;41577;47.470;19.080;2023-05-11T00:24:41;100285.34;;;13.18;60.05
53868;BME280;41577;47.470;19.080;2023-05-11T00:24:53;100279.13;;;13.18;60.44
53868;BME280;41577;47.470;19.080;2023-05-11T00:25:05;100275.63;;;13.17;60.17
53868;BME280;41577;47.470;19.080;2023-05-11T00:25:17;100275.84;;;13.16;60.44
53868;BME280;41577;47.470;19.080;2023-05-11T00:25:29;100273.75;;;13.18;60.41
53868;BME280;41577;47.470;19.080;2023-05-11T00:25:40;100281.00;;;13.17;60.58
53868;BME280;41577;47.470;19.080;2023-05-11T00:25:52;100273.75;;;13.18;60.32
53868;BME280;41577;47.470;19.080;2023-05-11T00:26:04;100281.81;;;13.18;60.41
53868;BME280;41577;47.470;19.080;2023-05-11T00:26:16;100278.31;;;13.17;60.34
53868;BME280;41577;47.470;19.080;2023-05-11T00:26:28;100282.03;;;13.16;60.36
53868;BME280;41577;47.470;19.080;2023-05-11T00:26:40;100284.47;;;13.18;60.49
53868;BME280;41577;47.470;19.080;2023-05-11T00:26:52;100276.44;;;13.18;60.21
53868;BME280;41577;47.470;19.080;2023-05-11T00:27:04;100282.66;;;13.18;60.35
53868;BME280;41577;47.470;19.080;2023-05-11T00:27:15;100279.34;;;13.16;60.33
53868;BME280;41577;47.470;19.080;2023-05-11T00:27:27;100279.13;;;13.18;60.24
53868;BME280;41577;47.470;19.080;2023-05-11T00:27:39;100278.31;;;13.17;60.34
53868;BME280;41577;47.470;19.080;2023-05-11T00:27:50;100283.66;;;13.17;60.20
53868;BME280;41577;47.470;19.080;2023-05-11T00:28:02;100279.34;;;13.16;60.41
53868;BME280;41577;47.470;19.080;2023-05-11T00:28:14;100277.50;;;13.17;60.22
53868;BME280;41577;47.470;19.080;2023-05-11T00:28:26;100276.44;;;13.18;60.60
53868;BME280;41577;47.470;19.080;2023-05-11T00:28:37;100277.50;;;13.17;60.63
53868;BME280;41577;47.470;19.080;2023-05-11T00:28:49;100281.00;;;13.17;60.33
53868;BME280;41577;47.470;19.080;2023-05-11T00:29:01;100281.00;;;13.17;60.43
53868;BME280;41577;47.470;19.080;2023-05-11T00:29:12;100272.94;;;13.17;60.87
53868;BME280;41577;47.470;19.080;2023-05-11T00:29:24;100281.00;;;13.17;60.65
53868;BME280;41577;47.470;19.080;2023-05-11T00:29:36;100282.03;;;13.16;60.61
53868;BME280;41577;47.470;19.080;2023-05-11T00:29:48;100277.69;;;13.15;60.51
53868;BME280;41577;47.470;19.080;2023-05-11T00:29:59;100275.00;;;13.15;60.77
53868;BME280;41577;47.470;19.080;2023-05-11T00:30:12;100281.22;;;13.16;60.97
53868;BME280;41577;47.470;19.080;2023-05-11T00:30:23;100280.16;;;13.17;60.51
53868;BME280;41577;47.470;19.080;2023-05-11T00:30:35;100275.00;;;13.15;60.83
53868;BME280;41577;47.470;19.080;2023-05-11T00:30:48;100275.00;;;13.15;60.75
53868;BME280;41577;47.470;19.080;2023-05-11T00:31:00;100280.38;;;13.15;60.84
53868;BME280;41577;47.470;19.080;2023-05-11T00:31:12;100286.56;;;13.16;60.47
53868;BME280;41577;47.470;19.080;2023-05-11T00:31:24;100280.38;;;13.15;60.96
53868;BME280;41577;47.470;19.080;2023-05-11T00:31:38;100273.38;;;13.14;60.78
53868;BME280;41577;47.470;19.080;2023-05-11T00:31:50;100279.53;;;13.15;61.11
53868;BME280;41577;47.470;19.080;2023-05-11T00:32:02;100274.19;;;13.15;60.77
53868;BME280;41577;47.470;19.080;2023-05-11T00:32:13;100275.00;;;13.15;61.05
53868;BME280;41577;47.470;19.080;2023-05-11T00:32:25;100276.88;;;13.15;60.85
53868;BME280;41577;47.470;19.080;2023-05-11T00:32:38;100274.19;;;13.15;61.00
53868;BME280;41577;47.470;19.080;2023-05-11T00:32:50;100276.03;;;13.14;61.06
53868;BME280;41577;47.470;19.080;2023-05-11T00:33:02;100276.03;;;13.14;60.70
53868;BME280;41577;47.470;19.080;2023-05-11T00:33:14;100278.53;;;13.16;61.14
53868;BME280;41577;47.470;19.080;2023-05-11T00:33:25;100277.69;;;13.15;61.07
53868;BME280;41577;47.470;19.080;2023-05-11T00:33:37;100277.69;;;13.15;61.03
53868;BME280;41577;47.470;19.080;2023-05-11T00:33:48;100278.72;;;13.14;61.22
53868;BME280;41577;47.470;19.080;2023-05-11T00:34:00;100275.22;;;13.14;61.05
53868;BME280;41577;47.470;19.080;2023-05-11T00:34:12;100277.69;;;13.15;61.12
53868;BME280;41577;47.470;19.080;2023-05-11T00:34:24;100276.88;;;13.15;61.14
53868;BME280;41577;47.470;19.080;2023-05-11T00:34:37;100275.84;;;13.16;61.42
53868;BME280;41577;47.470;19.080;2023-05-11T00:34:49;100278.53;;;13.16;61.73
53868;BME280;41577;47.470;19.080;2023-05-11T00:35:00;100276.88;;;13.15;61.11
53868;BME280;41577;47.470;19.080;2023-05-11T00:35:12;100274.19;;;13.15;61.43
53868;BME280;41577;47.470;19.080;2023-05-11T00:35:24;100271.50;;;13.15;61.27
53868;BME280;41577;47.470;19.080;2023-05-11T00:35:36;100270.69;;;13.14;61.08
53868;BME280;41577;47.470;19.080;2023-05-11T00:35:47;100270.69;;;13.14;61.49
53868;BME280;41577;47.470;19.080;2023-05-11T00:35:59;100275.00;;;13.15;61.08
53868;BME280;41577;47.470;19.080;2023-05-11T00:36:11;100272.53;;;13.14;61.05
53868;BME280;41577;47.470;19.080;2023-05-11T00:36:23;100270.69;;;13.14;61.42
53868;BME280;41577;47.470;19.080;2023-05-11T00:36:34;100276.88;;;13.15;61.28
53868;BME280;41577;47.470;19.080;2023-05-11T00:36:46;100278.72;;;13.14;61.17
53868;BME280;41577;47.470;19.080;2023-05-11T00:36:58;100270.88;;;13.13;61.14
53868;BME280;41577;47.470;19.080;2023-05-11T00:37:09;100270.69;;;13.14;61.44
53868;BME280;41577;47.470;19.080;2023-05-11T00:37:21;100274.38;;;13.13;61.49
53868;BME280;41577;47.470;19.080;2023-05-11T00:37:34;100272.53;;;13.14;61.58
53868;BME280;41577;47.470;19.080;2023-05-11T00:37:46;100271.69;;;13.13;61.53
53868;BME280;41577;47.470;19.080;2023-05-11T00:37:58;100274.38;;;13.13;61.33
53868;BME280;41577;47.470;19.080;2023-05-11T00:38:10;100273.56;;;13.13;61.45
53868;BME280;41577;47.470;19.080;2023-05-11T00:38:21;100270.88;;;13.13;61.44
53868;BME280;41577;47.470;19.080;2023-05-11T00:38:33;100270.06;;;13.12;61.50
53868;BME280;41577;47.470;19.080;2023-05-11T00:38:45;100277.06;;;13.13;61.28
53868;BME280;41577;47.470;19.080;2023-05-11T00:38:57;100270.88;;;13.13;61.13
53868;BME280;41577;47.470;19.080;2023-05-11T00:39:08;100269.00;;;13.13;61.12
53868;BME280;41577;47.470;19.080;2023-05-11T00:39:20;100270.88;;;13.13;61.39
53868;BME280;41577;47.470;19.080;2023-05-11T00:39:32;100269.00;;;13.13;61.14
53868;BME280;41577;47.470;19.080;2023-05-11T00:39:44;100272.75;;;13.12;61.68
53868;BME280;41577;47.470;19.080;2023-05-11T00:39:55;100269.25;;;13.12;61.88
53868;BME280;41577;47.470;19.080;2023-05-11T00:40:08;100267.19;;;13.14;61.28
53868;BME280;41577;47.470;19.080;2023-05-11T00:40:19;100269.88;;;13.14;61.60
53868;BME280;41577;47.470;19.080;2023-05-11T00:40:31;100266.34;;;13.13;61.82
53868;BME280;41577;47.470;19.080;2023-05-11T00:40:43;100270.06;;;13.12;61.48
53868;BME280;41577;47.470;19.080;2023-05-11T00:40:55;100270.06;;;13.12;61.97
53868;BME280;41577;47.470;19.080;2023-05-11T00:41:07;100266.34;;;13.13;61.89
53868;BME280;41577;47.470;19.080;2023-05-11T00:41:19;100264.50;;;13.14;61.76
53868;BME280;41577;47.470;19.080;2023-05-11T00:41:30;100262.84;;;13.13;61.83
53868;BME280;41577;47.470;19.080;2023-05-11T00:41:42;100264.69;;;13.12;61.78
53868;BME280;41577;47.470;19.080;2023-05-11T00:41:54;100270.69;;;13.14;61.59
53868;BME280;41577;47.470;19.080;2023-05-11T00:42:06;100271.69;;;13.13;62.00
53868;BME280;41577;47.470;19.080;2023-05-11T00:42:17;100269.00;;;13.13;61.84
53868;BME280;41577;47.470;19.080;2023-05-11T00:42:29;100270.06;;;13.12;61.88
53868;BME280;41577;47.470;19.080;2023-05-11T00:42:41;100265.50;;;13.13;61.35
53868;BME280;41577;47.470;19.080;2023-05-11T00:42:53;100269.00;;;13.13;61.84
53868;BME280;41577;47.470;19.080;2023-05-11T00:43:04;100266.34;;;13.13;61.69
53868;BME280;41577;47.470;19.080;2023-05-11T00:43:16;100261.81;;;13.14;61.83
53868;BME280;41577;47.470;19.080;2023-05-11T00:43:28;100264.50;;;13.14;61.80
53868;BME280;41577;47.470;19.080;2023-05-11T00:43:40;100266.34;;;13.13;61.85
53868;BME280;41577;47.470;19.080;2023-05-11T00:43:51;100271.69;;;13.13;61.89
53868;BME280;41577;47.470;19.080;2023-05-11T00:44:03;100269.00;;;13.13;61.94
53868;BME280;41577;47.470;19.080;2023-05-11T00:44:15;100269.00;;;13.13;61.83
53868;BME280;41577;47.470;19.080;2023-05-11T00:44:27;100266.34;;;13.13;61.74
53868;BME280;41577;47.470;19.080;2023-05-11T00:44:38;100266.34;;;13.13;61.57
53868;BME280;41577;47.470;19.080;2023-05-11T00:44:50;100263.66;;;13.13;61.71
53868;BME280;41577;47.470;19.080;2023-05-11T00:45:02;100263.66;;;13.13;61.75
53868;BME280;41577;47.470;19.080;2023-05-11T00:45:14;100260.97;;;13.13;61.94
53868;BME280;41577;47.470;19.080;2023-05-11T00:45:26;100263.06;;;13.11;61.84
53868;BME280;41577;47.470;19.080;2023-05-11T00:45:38;100266.34;;;13.13;61.81
53868;BME280;41577;47.470;19.080;2023-05-11T00:45:52;100260.97;;;13.13;62.02
53868;BME280;41577;47.470;19.080;2023-05-11T00:46:04;100265.50;;;13.13;61.88
53868;BME280;41577;47.470;19.080;2023-05-11T00:46:15;100263.66;;;13.13;61.87
53868;BME280;41577;47.470;19.080;2023-05-11T00:46:27;100275.22;;;13.14;62.13
53868;BME280;41577;47.470;19.080;2023-05-11T00:46:39;100266.13;;;13.15;61.91
53868;BME280;41577;47.470;19.080;2023-05-11T00:46:51;100275.00;;;13.15;62.25
53868;BME280;41577;47.470;19.080;2023-05-11T00:47:03;100265.31;;;13.14;62.22
53868;BME280;41577;47.470;19.080;2023-05-11T00:47:15;100259.13;;;13.14;62.29
53868;BME280;41577;47.470;19.080;2023-05-11T00:47:27;100260.78;;;13.15;62.13
53868;BME280;41577;47.470;19.080;2023-05-11T00:47:39;100262.63;;;13.14;62.08
53868;BME280;41577;47.470;19.080;2023-05-11T00:47:51;100262.63;;;13.14;62.16
53868;BME280;41577;47.470;19.080;2023-05-11T00:48:03;100263.47;;;13.15;62.46
53868;BME280;41577;47.470;19.080;2023-05-11T00:48:15;100263.47;;;13.15;62.06
53868;BME280;41577;47.470;19.080;2023-05-11T00:48:27;100263.47;;;13.15;62.29
53868;BME280;41577;47.470;19.080;2023-05-11T00:48:39;100264.50;;;13.14;62.17
53868;BME280;41577;47.470;19.080;2023-05-11T00:48:50;100260.78;;;13.15;61.80
53868;BME280;41577;47.470;19.080;2023-05-11T00:49:02;100266.13;;;13.15;61.90
53868;BME280;41577;47.470;19.080;2023-05-11T00:49:14;100268.00;;;13.14;62.10
53868;BME280;41577;47.470;19.080;2023-05-11T00:49:26;100266.97;;;13.15;61.93
53868;BME280;41577;47.470;19.080;2023-05-11T00:49:38;100260.78;;;13.15;61.99
53868;BME280;41577;47.470;19.080;2023-05-11T00:49:51;100266.97;;;13.15;61.92
53868;BME280;41577;47.470;19.080;2023-05-11T00:50:04;100265.13;;;13.16;61.96
53868;BME280;41577;47.470;19.080;2023-05-11T00:50:17;100265.13;;;13.16;62.08
53868;BME280;41577;47.470;19.080;2023-05-11T00:50:29;100258.09;;;13.15;62.24
53868;BME280;41577;47.470;19.080;2023-05-11T00:50:41;100258.91;;;13.15;62.17
53868;BME280;41577;47.470;19.080;2023-05-11T00:50:53;100264.28;;;13.15;62.02
53868;BME280;41577;47.470;19.080;2023-05-11T00:51:05;100264.28;;;13.15;62.27
53868;BME280;41577;47.470;19.080;2023-05-11T00:51:17;100264.28;;;13.15;62.17
53868;BME280;41577;47.470;19.080;2023-05-11T00:51:30;100258.91;;;13.15;62.34
53868;BME280;41577;47.470;19.080;2023-05-11T00:51:42;100257.91;;;13.16;62.02
53868;BME280;41577;47.470;19.080;2023-05-11T00:51:54;100263.25;;;13.16;62.16
53868;BME280;41577;47.470;19.080;2023-05-11T00:52:06;100266.75;;;13.17;62.40
53868;BME280;41577;47.470;19.080;2023-05-11T00:52:18;100256.47;;;13.14;61.88
53868;BME280;41577;47.470;19.080;2023-05-11T00:52:31;100255.41;;;13.15;62.08
53868;BME280;41577;47.470;19.080;2023-05-11T00:52:43;100261.59;;;13.15;62.17
53868;BME280;41577;47.470;19.080;2023-05-11T00:52:56;100263.25;;;13.16;62.09
53868;BME280;41577;47.470;19.080;2023-05-11T00:53:08;100264.09;;;13.17;62.06
53868;BME280;41577;47.470;19.080;2023-05-11T00:53:20;100263.25;;;13.16;62.03
53868;BME280;41577;47.470;19.080;2023-05-11T00:53:32;100260.59;;;13.16;62.22
53868;BME280;41577;47.470;19.080;2023-05-11T00:53:44;100264.91;;;13.17;62.19
53868;BME280;41577;47.470;19.080;2023-05-11T00:53:56;100258.72;;;13.17;62.22
53868;BME280;41577;47.470;19.080;2023-05-11T00:54:08;100260.59;;;13.16;62.01
53868;BME280;41577;47.470;19.080;2023-05-11T00:54:20;100260.59;;;13.16;62.31
53868;BME280;41577;47.470;19.080;2023-05-11T00:54:32;100254.41;;;13.16;62.41
53868;BME280;41577;47.470;19.080;2023-05-11T00:54:44;100256.03;;;13.17;62.57
53868;BME280;41577;47.470;19.080;2023-05-11T00:54:57;100255.22;;;13.16;62.53
53868;BME280;41577;47.470;19.080;2023-05-11T00:55:10;100260.59;;;13.16;62.25
53868;BME280;41577;47.470;19.080;2023-05-11T00:55:23;100257.09;;;13.16;62.40
53868;BME280;41577;47.470;19.080;2023-05-11T00:55:35;100256.03;;;13.17;62.21
53868;BME280;41577;47.470;19.080;2023-05-11T00:55:47;100262.22;;;13.17;62.22
53868;BME280;41577;47.470;19.080;2023-05-11T00:55:59;100267.59;;;13.17;62.06
53868;BME280;41577;47.470;19.080;2023-05-11T00:56:10;100265.94;;;13.16;62.02
53868;BME280;41577;47.470;19.080;2023-05-11T00:56:22;100258.72;;;13.17;62.17
53868;BME280;41577;47.470;19.080;2023-05-11T00:56:34;100259.53;;;13.17;62.17
53868;BME280;41577;47.470;19.080;2023-05-11T00:56:45;100265.94;;;13.16;62.30
53868;BME280;41577;47.470;19.080;2023-05-11T00:56:57;100258.72;;;13.17;61.80
53868;BME280;41577;47.470;19.080;2023-05-11T00:57:09;100263.03;;;13.18;61.78
53868;BME280;41577;47.470;19.080;2023-05-11T00:57:21;100265.72;;;13.18;62.42
53868;BME280;41577;47.470;19.080;2023-05-11T00:57:32;100257.66;;;13.18;62.19
53868;BME280;41577;47.470;19.080;2023-05-11T00:57:44;100259.53;;;13.17;62.29
53868;BME280;41577;47.470;19.080;2023-05-11T00:57:56;100258.53;;;13.18;61.75
53868;BME280;41577;47.470;19.080;2023-05-11T00:58:08;100258.53;;;13.18;62.08
53868;BME280;41577;47.470;19.080;2023-05-11T00:58:20;100256.84;;;13.17;61.95
53868;BME280;41577;47.470;19.080;2023-05-11T00:58:32;100258.53;;;13.18;62.20
53868;BME280;41577;47.470;19.080;2023-05-11T00:58:44;100263.03;;;13.18;62.29
53868;BME280;41577;47.470;19.080;2023-05-11T00:58:56;100260.34;;;13.18;62.27
53868;BME280;41577;47.470;19.080;2023-05-11T00:59:08;100256.66;;;13.19;62.02
53868;BME280;41577;47.470;19.080;2023-05-11T00:59:20;100259.53;;;13.17;61.96
53868;BME280;41577;47.470;19.080;2023-05-11T00:59:31;100261.41;;;13.17;62.03
53868;BME280;41577;47.470;19.080;2023-05-11T00:59:43;100255.84;;;13.18;62.07
53868;BME280;41577;47.470;19.080;2023-05-11T00:59:55;100260.34;;;13.18;61.88
53868;BME280;41577;47.470;19.080;2023-05-11T01:00:08;100253.97;;;13.19;62.40
53868;BME280;41577;47.470;19.080;2023-05-11T01:00:20;100258.53;;;13.18;61.99
53868;BME280;41577;47.470;19.080;2023-05-11T01:00:32;100255.00;;;13.18;62.00
53868;BME280;41577;47.470;19.080;2023-05-11T01:00:44;100263.88;;;13.18;62.31
53868;BME280;41577;47.470;19.080;2023-05-11T01:00:57;100259.34;;;13.19;62.28
53868;BME280;41577;47.470;19.080;2023-05-11T01:01:09;100256.66;;;13.19;62.20
53868;BME280;41577;47.470;19.080;2023-05-11T01:01:20;100259.34;;;13.19;62.10
53868;BME280;41577;47.470;19.080;2023-05-11T01:01:32;100261.19;;;13.18;61.94
53868;BME280;41577;47.470;19.080;2023-05-11T01:01:44;100260.97;;;13.20;62.47
53868;BME280;41577;47.470;19.080;2023-05-11T01:01:56;100255.63;;;13.20;62.32